Time;durP1;ratioP1;P1;durP2;ratioP2;P2;SDS_P1;SDS_P2;PMS_P1;PMS_P2;Temp;Humidity;BMP_temperature;BMP_pressure;BME280_temperature;BME280_humidity;BME280_pressure;Samples;Min_cycle;Max_cycle;Signal;HPM_P1;HPM_P2
2022/06/23 00:00:24;;;;;;;7.13;4.20;;;20.70;99.90;;;;;;7371291;19;20408;-45
2022/06/23 00:02:57;;;;;;;6.33;4.00;;;20.60;99.90;;;;;;7365624;19;20771;-46
2022/06/23 00:05:32;;;;;;;9.73;4.53;;;20.50;99.90;;;;;;7377497;19;21220;-46
2022/06/23 00:08:03;;;;;;;10.57;4.87;;;20.50;99.90;;;;;;7379307;19;20391;-45
2022/06/23 00:10:39;;;;;;;9.57;4.93;;;20.40;99.90;;;;;;7376598;19;20480;-46
2022/06/23 00:13:19;;;;;;;10.70;4.77;;;20.40;99.90;;;;;;7378307;19;20733;-45
2022/06/23 00:15:48;;;;;;;8.13;5.27;;;20.70;99.90;;;;;;7375835;19;20386;-46
2022/06/23 00:18:21;;;;;;;9.97;4.53;;;20.70;99.90;;;;;;7378297;19;20380;-45
2022/06/23 00:20:53;;;;;;;8.37;5.53;;;20.70;99.90;;;;;;7368599;19;20777;-45
2022/06/23 00:23:26;;;;;;;17.50;6.27;;;20.70;99.90;;;;;;7373430;19;20383;-46
2022/06/23 00:26:01;;;;;;;24.13;7.80;;;20.90;99.90;;;;;;7375758;19;20411;-46
2022/06/23 00:28:37;;;;;;;12.83;5.30;;;20.90;99.90;;;;;;7375076;19;20901;-46
2022/06/23 00:31:09;;;;;;;7.90;5.30;;;20.60;99.90;;;;;;7373621;19;20383;-46
2022/06/23 00:33:42;;;;;;;9.27;4.90;;;20.60;99.90;;;;;;7376728;19;20792;-46
2022/06/23 00:36:26;;;;;;;10.37;5.80;;;20.80;99.90;;;;;;7377396;19;20373;-45
2022/06/23 00:38:56;;;;;;;7.53;4.47;;;20.50;99.90;;;;;;7372748;19;20379;-46
2022/06/23 00:41:32;;;;;;;8.33;4.90;;;20.00;99.90;;;;;;7374923;19;20509;-43
2022/06/23 00:44:10;;;;;;;11.10;4.60;;;19.90;99.90;;;;;;7374092;19;20405;-45
2022/06/23 00:46:48;;;;;;;13.30;6.40;;;19.70;99.90;;;;;;7373369;19;20443;-45
2022/06/23 00:49:27;;;;;;;7.53;5.10;;;19.70;99.90;;;;;;7378516;19;20372;-45
2022/06/23 00:52:00;;;;;;;16.13;5.00;;;19.50;99.90;;;;;;7378579;19;20368;-44
2022/06/23 00:54:33;;;;;;;7.90;4.70;;;19.50;99.90;;;;;;7374980;19;20408;-44
2022/06/23 00:57:13;;;;;;;17.93;6.27;;;19.30;99.90;;;;;;7373115;19;20380;-44
2022/06/23 00:59:50;;;;;;;13.33;6.00;;;19.10;99.90;;;;;;7370065;19;20903;-44
2022/06/23 01:02:25;;;;;;;7.33;4.97;;;19.00;99.90;;;;;;7370708;19;20481;-44
2022/06/23 01:05:06;;;;;;;12.50;6.50;;;19.00;99.90;;;;;;7374020;19;20376;-45
2022/06/23 01:07:44;;;;;;;12.80;6.47;;;19.00;99.90;;;;;;7376338;19;20925;-45
2022/06/23 01:10:22;;;;;;;10.77;5.40;;;19.20;99.90;;;;;;7375875;19;20849;-45
2022/06/23 01:13:00;;;;;;;13.90;4.90;;;19.40;99.90;;;;;;7371012;19;20930;-46
2022/06/23 01:15:38;;;;;;;8.70;5.20;;;19.50;99.90;;;;;;7369881;19;20774;-46
2022/06/23 01:18:16;;;;;;;10.17;5.73;;;19.60;99.90;;;;;;7370769;19;20368;-46
2022/06/23 01:20:52;;;;;;;7.90;4.93;;;19.60;99.90;;;;;;7371114;19;20727;-45
2022/06/23 01:23:54;;;;;;;10.17;5.60;;;19.40;99.90;;;;;;7370221;19;21364;-45
2022/06/23 01:26:50;;;;;;;9.43;5.03;;;19.30;99.90;;;;;;7372619;19;20459;-46
2022/06/23 01:29:29;;;;;;;12.47;6.17;;;19.30;99.90;;;;;;7375681;19;20904;-46
2022/06/23 01:32:07;;;;;;;8.40;5.33;;;19.40;99.90;;;;;;7359928;19;21063;-46
2022/06/23 01:34:47;;;;;;;8.70;4.37;;;19.30;99.90;;;;;;7366832;19;20459;-45
2022/06/23 01:37:22;;;;;;;12.77;6.73;;;19.40;99.90;;;;;;7372150;19;20372;-45
2022/06/23 01:40:04;;;;;;;10.70;5.73;;;19.40;99.90;;;;;;7369685;19;20879;-45
2022/06/23 01:42:44;;;;;;;14.30;5.47;;;19.30;99.90;;;;;;7368943;19;21422;-45
2022/06/23 01:45:23;;;;;;;9.33;5.57;;;19.40;99.90;;;;;;7371402;19;20497;-44
2022/06/23 01:48:01;;;;;;;10.83;5.47;;;19.50;99.90;;;;;;7370959;19;20404;-45
2022/06/23 01:50:40;;;;;;;7.77;4.27;;;19.60;99.90;;;;;;7371507;19;20394;-45
2022/06/23 01:53:21;;;;;;;13.23;5.63;;;19.70;99.90;;;;;;7373346;19;20420;-44
2022/06/23 01:56:06;;;;;;;9.60;5.07;;;19.50;99.90;;;;;;7374129;19;20909;-44
2022/06/23 01:58:47;;;;;;;14.20;5.13;;;19.30;99.90;;;;;;7373533;19;20388;-45
2022/06/23 02:01:23;;;;;;;11.40;5.53;;;19.20;99.90;;;;;;7371728;19;20403;-45
2022/06/23 02:04:02;;;;;;;10.20;5.30;;;19.40;99.90;;;;;;7369586;19;20779;-45
2022/06/23 02:06:40;;;;;;;12.97;6.87;;;19.50;99.90;;;;;;7371654;19;20412;-44
2022/06/23 02:09:25;;;;;;;6.07;4.97;;;19.40;99.90;;;;;;7371636;19;20420;-45
2022/06/23 02:11:55;;;;;;;10.07;5.10;;;19.40;99.90;;;;;;7368017;19;20737;-45
2022/06/23 02:14:52;;;;;;;12.57;6.77;;;19.50;99.90;;;;;;7372015;19;20865;-45
2022/06/23 02:17:33;;;;;;;9.30;5.30;;;19.40;99.90;;;;;;7368503;19;20407;-44
2022/06/23 02:20:17;;;;;;;9.90;5.30;;;19.40;99.90;;;;;;7371375;19;20386;-44
2022/06/23 02:22:48;;;;;;;13.80;5.33;;;19.30;99.90;;;;;;7366248;19;20367;-45
2022/06/23 02:25:23;;;;;;;9.43;5.20;;;19.30;99.90;;;;;;7370379;19;21722;-43
2022/06/23 02:27:59;;;;;;;9.90;4.73;;;19.10;99.90;;;;;;7370955;19;20393;-44
2022/06/23 02:30:36;;;;;;;9.27;5.70;;;18.90;99.90;;;;;;7370290;19;20380;-45
2022/06/23 02:33:18;;;;;;;9.57;5.10;;;19.00;99.90;;;;;;7371465;19;20377;-45
2022/06/23 02:35:55;;;;;;;10.47;5.40;;;19.10;99.90;;;;;;7367087;19;20518;-44
2022/06/23 02:38:28;;;;;;;14.27;5.77;;;19.20;99.90;;;;;;7371233;19;20451;-45
2022/06/23 02:41:06;;;;;;;9.47;4.67;;;19.20;99.90;;;;;;7372126;19;20827;-45
2022/06/23 02:43:39;;;;;;;12.20;5.27;;;19.00;99.90;;;;;;7368243;19;20379;-45
2022/06/23 02:46:39;;;;;;;11.80;5.50;;;18.90;99.90;;;;;;7368226;19;21004;-45
2022/06/23 02:49:32;;;;;;;8.37;5.17;;;19.00;99.90;;;;;;7368596;19;20830;-45
2022/06/23 02:52:35;;;;;;;14.53;5.17;;;19.00;99.90;;;;;;7370463;19;20388;-45
2022/06/23 02:55:29;;;;;;;10.33;5.70;;;18.60;99.90;;;;;;7372754;19;20431;-45
2022/06/23 02:58:05;;;;;;;10.17;6.00;;;18.50;99.90;;;;;;7349187;19;20993;-45
2022/06/23 03:00:46;;;;;;;7.83;5.60;;;18.70;99.90;;;;;;7371613;19;20375;-45
2022/06/23 03:03:22;;;;;;;15.13;5.73;;;18.90;99.90;;;;;;7367526;19;20375;-45
2022/06/23 03:06:00;;;;;;;13.50;5.83;;;19.00;99.90;;;;;;7370955;19;20391;-45
2022/06/23 03:08:44;;;;;;;12.33;5.60;;;19.10;99.90;;;;;;7368874;19;20431;-45
2022/06/23 03:11:51;;;;;;;8.00;4.50;;;19.10;99.90;;;;;;7369551;19;20475;-45
2022/06/23 03:14:16;;;;;;;12.53;5.10;;;19.30;99.90;;;;;;7368779;19;20380;-45
2022/06/23 03:16:52;;;;;;;12.37;6.23;;;19.60;99.90;;;;;;7367070;19;20416;-45
2022/06/23 03:19:28;;;;;;;7.37;4.67;;;19.70;99.90;;;;;;7364983;19;20800;-45
2022/06/23 03:22:10;;;;;;;12.43;5.87;;;19.50;99.90;;;;;;7367355;19;20893;-45
2022/06/23 03:24:46;;;;;;;14.67;5.77;;;19.40;99.90;;;;;;7370506;19;20499;-45
2022/06/23 03:27:23;;;;;;;9.07;5.33;;;19.30;99.90;;;;;;7370608;19;20938;-45
2022/06/23 03:29:58;;;;;;;11.77;5.70;;;19.20;99.90;;;;;;7371755;19;20761;-45
2022/06/23 03:32:32;;;;;;;14.67;6.30;;;18.80;99.90;;;;;;7360010;19;20391;-44
2022/06/23 03:35:09;;;;;;;12.20;5.80;;;18.60;99.90;;;;;;7367141;19;20371;-45
2022/06/23 03:37:50;;;;;;;11.20;5.67;;;18.90;99.90;;;;;;7369510;19;20382;-45
2022/06/23 03:43:18;;;;;;;11.37;6.17;;;18.90;99.90;;;;;;7374944;19;20508;-45
2022/06/23 03:45:52;;;;;;;8.70;5.40;;;19.00;99.90;;;;;;7371370;19;20368;-45
2022/06/23 03:48:28;;;;;;;12.07;6.30;;;19.10;99.90;;;;;;7379433;19;20383;-45
2022/06/23 03:51:02;;;;;;;15.53;5.97;;;19.10;99.90;;;;;;7374475;19;20415;-45
2022/06/23 03:53:42;;;;;;;11.50;6.07;;;19.30;99.90;;;;;;7375373;19;20937;-45
2022/06/23 03:56:21;;;;;;;17.63;6.13;;;19.50;99.90;;;;;;7379225;19;20368;-45
2022/06/23 03:58:55;;;;;;;14.30;6.60;;;19.60;99.90;;;;;;7375324;19;20363;-45
2022/06/23 04:01:28;;;;;;;6.70;5.40;;;19.50;99.90;;;;;;7370462;19;20388;-45
2022/06/23 04:04:05;;;;;;;10.97;5.83;;;19.40;99.90;;;;;;7373266;19;21001;-45
2022/06/23 04:06:37;;;;;;;11.17;5.30;;;19.50;99.90;;;;;;7369081;19;20848;-45
2022/06/23 04:09:16;;;;;;;11.73;6.10;;;19.50;99.90;;;;;;7375576;19;20432;-45
2022/06/23 04:11:54;;;;;;;14.17;5.80;;;19.50;99.90;;;;;;7376075;19;20849;-45
2022/06/23 04:14:46;;;;;;;10.60;5.20;;;19.50;99.90;;;;;;7372348;19;20371;-45
2022/06/23 04:17:22;;;;;;;10.40;5.70;;;19.60;99.90;;;;;;7374532;19;21222;-45
2022/06/23 04:19:54;;;;;;;13.63;7.80;;;19.70;99.90;;;;;;7352504;19;20483;-45
2022/06/23 04:22:29;;;;;;;13.27;6.57;;;19.60;99.90;;;;;;7379399;19;21144;-44
2022/06/23 04:25:04;;;;;;;14.90;5.57;;;19.50;99.90;;;;;;7376226;19;20427;-45
2022/06/23 04:27:43;;;;;;;8.80;5.47;;;19.60;99.90;;;;;;7371751;19;20372;-44
2022/06/23 04:30:22;;;;;;;10.90;6.07;;;19.70;99.90;;;;;;7373439;19;20479;-46
2022/06/23 04:32:52;;;;;;;8.60;5.63;;;19.80;99.90;;;;;;7364933;19;20372;-45
2022/06/23 04:35:28;;;;;;;10.30;5.60;;;19.70;99.90;;;;;;7373920;19;20756;-45
2022/06/23 04:38:03;;;;;;;10.23;6.73;;;19.40;99.90;;;;;;7377447;19;21316;-44
2022/06/23 04:40:41;;;;;;;8.87;5.60;;;19.30;99.90;;;;;;7378818;19;20388;-44
2022/06/23 04:43:19;;;;;;;11.40;5.87;;;19.20;99.90;;;;;;7371162;19;21069;-44
2022/06/23 04:45:57;;;;;;;12.97;6.40;;;19.30;99.90;;;;;;7371373;19;21001;-45
2022/06/23 04:48:34;;;;;;;13.10;7.20;;;19.20;99.90;;;;;;7367127;19;20404;-44
2022/06/23 04:51:08;;;;;;;11.47;6.93;;;19.40;99.90;;;;;;7365267;19;20364;-44
2022/06/23 04:53:48;;;;;;;10.47;5.80;;;19.50;99.90;;;;;;7369340;19;20455;-45
2022/06/23 04:56:33;;;;;;;15.67;7.00;;;19.40;99.90;;;;;;7367422;19;20486;-45
2022/06/23 04:59:08;;;;;;;10.03;6.63;;;19.40;99.90;;;;;;7371176;19;20368;-45
2022/06/23 05:01:42;;;;;;;13.70;6.50;;;19.50;99.90;;;;;;7370563;19;20420;-42
2022/06/23 05:04:20;;;;;;;10.43;5.97;;;19.60;99.90;;;;;;7370941;19;21000;-41
2022/06/23 05:06:51;;;;;;;12.33;5.77;;;19.50;99.90;;;;;;7372820;19;20409;-42
2022/06/23 05:09:26;;;;;;;10.40;6.83;;;19.60;99.90;;;;;;7371095;19;20368;-42
2022/06/23 05:12:04;;;;;;;11.87;5.50;;;19.80;99.90;;;;;;7362030;19;21031;-42
2022/06/23 05:14:40;;;;;;;9.13;6.07;;;20.00;99.90;;;;;;7368092;19;20372;-42
2022/06/23 05:17:19;;;;;;;10.40;6.30;;;20.10;99.90;;;;;;7367536;19;20743;-42
2022/06/23 05:19:51;;;;;;;15.53;6.90;;;20.30;99.90;;;;;;7367588;19;20364;-42
2022/06/23 05:22:28;;;;;;;17.63;8.27;;;20.40;99.90;;;;;;7369549;19;20380;-42
2022/06/23 05:25:00;;;;;;;13.80;6.83;;;20.50;99.90;;;;;;7359023;19;20427;-42
2022/06/23 05:27:36;;;;;;;14.50;6.83;;;20.40;99.90;;;;;;7361925;19;20372;-42
2022/06/23 05:30:20;;;;;;;9.90;6.40;;;20.30;99.90;;;;;;7364864;19;20881;-45
2022/06/23 05:32:53;;;;;;;16.20;7.03;;;20.30;99.90;;;;;;7357152;19;21113;-46
2022/06/23 05:35:27;;;;;;;9.90;5.87;;;20.40;99.90;;;;;;7371007;19;20368;-46
2022/06/23 05:38:02;;;;;;;12.27;6.77;;;20.80;99.90;;;;;;7371223;19;20368;-45
2022/06/23 05:40:36;;;;;;;9.70;5.80;;;20.90;99.90;;;;;;7364544;19;20384;-45
2022/06/23 05:43:11;;;;;;;12.60;6.97;;;20.90;99.90;;;;;;7372723;19;20487;-45
2022/06/23 05:45:47;;;;;;;12.47;6.53;;;20.90;99.90;;;;;;7374418;19;21068;-45
2022/06/23 05:48:21;;;;;;;12.57;7.17;;;21.10;99.90;;;;;;7374002;19;20802;-44
2022/06/23 05:50:56;;;;;;;12.97;7.20;;;21.10;99.90;;;;;;7374081;19;20383;-45
2022/06/23 05:53:29;;;;;;;15.00;6.73;;;20.90;99.90;;;;;;7377133;19;20379;-45
2022/06/23 05:56:05;;;;;;;10.80;6.97;;;20.90;99.90;;;;;;7376575;19;20669;-45
2022/06/23 05:58:46;;;;;;;16.60;6.57;;;21.00;99.90;;;;;;7378732;19;20403;-45
2022/06/23 06:01:24;;;;;;;10.73;6.10;;;21.20;99.90;;;;;;7379361;19;20695;-45
2022/06/23 06:04:01;;;;;;;11.73;6.10;;;21.40;99.90;;;;;;7377171;19;20375;-45
2022/06/23 06:06:33;;;;;;;8.90;5.40;;;21.40;99.90;;;;;;7373325;19;20940;-45
2022/06/23 06:11:55;;;;;;;8.60;5.33;;;21.70;99.90;;;;;;7377895;19;20376;-45
2022/06/23 06:14:30;;;;;;;13.53;5.80;;;21.80;99.90;;;;;;7376297;19;20405;-45
2022/06/23 06:17:02;;;;;;;10.73;5.93;;;22.00;99.90;;;;;;7377386;19;20372;-45
2022/06/23 06:19:36;;;;;;;10.20;5.77;;;22.20;99.90;;;;;;7374626;19;20388;-45
2022/06/23 06:22:28;;;;;;;10.70;5.93;;;22.30;99.90;;;;;;7378799;19;20387;-45
2022/06/23 06:24:58;;;;;;;14.20;6.10;;;22.50;99.90;;;;;;7372368;19;21271;-45
2022/06/23 06:27:28;;;;;;;10.43;5.10;;;22.60;99.90;;;;;;7377100;19;20376;-45
2022/06/23 06:30:00;;;;;;;10.40;6.53;;;22.80;99.90;;;;;;7377594;19;20404;-46
2022/06/23 06:32:34;;;;;;;15.53;6.30;;;23.00;99.90;;;;;;7374194;19;20376;-45
2022/06/23 06:35:14;;;;;;;10.80;5.97;;;23.10;99.90;;;;;;7373990;19;20938;-46
2022/06/23 06:37:46;;;;;;;13.57;6.57;;;23.30;99.90;;;;;;7372107;19;20385;-46
2022/06/23 06:40:17;;;;;;;8.43;5.53;;;23.50;99.90;;;;;;7369275;19;20393;-45
2022/06/23 06:42:50;;;;;;;12.23;5.93;;;23.70;99.90;;;;;;7366360;19;20406;-47
2022/06/23 06:45:36;;;;;;;9.27;6.00;;;23.90;99.90;;;;;;7372669;19;20389;-47
2022/06/23 06:48:11;;;;;;;9.77;5.73;;;23.80;99.90;;;;;;7372569;19;20372;-45
2022/06/23 06:50:48;;;;;;;15.40;5.70;;;23.80;99.90;;;;;;7352921;19;20367;-47
2022/06/23 06:53:21;;;;;;;9.60;4.07;;;23.80;99.90;;;;;;7375861;19;20485;-45
2022/06/23 06:55:54;;;;;;;5.40;3.83;;;24.10;99.90;;;;;;7372617;19;20375;-45
2022/06/23 06:58:30;;;;;;;11.20;4.80;;;24.30;99.90;;;;;;7376687;19;20375;-45
2022/06/23 07:01:07;;;;;;;7.10;3.80;;;24.30;99.90;;;;;;7374783;19;20925;-45
2022/06/23 07:03:38;;;;;;;12.30;4.00;;;24.40;99.90;;;;;;7377381;19;20410;-46
2022/06/23 07:06:17;;;;;;;10.27;4.33;;;24.50;99.90;;;;;;7370766;19;20948;-45
2022/06/23 07:08:53;;;;;;;10.63;4.30;;;24.60;99.90;;;;;;7377248;19;20415;-45
2022/06/23 07:11:27;;;;;;;9.03;3.50;;;24.60;99.90;;;;;;7377174;19;20376;-46
2022/06/23 07:14:02;;;;;;;10.97;4.37;;;24.80;99.90;;;;;;7373638;19;20376;-45
2022/06/23 07:16:40;;;;;;;5.93;3.67;;;25.00;99.90;;;;;;7378556;19;20794;-44
2022/06/23 07:19:15;;;;;;;7.70;3.47;;;25.30;99.90;;;;;;7381485;19;20383;-45
2022/06/23 07:21:50;;;;;;;10.03;3.90;;;25.40;99.90;;;;;;7379528;19;20412;-45
2022/06/23 07:24:24;;;;;;;9.60;3.30;;;25.70;99.90;;;;;;7379508;19;20785;-45
2022/06/23 07:27:00;;;;;;;10.60;3.60;;;25.70;99.90;;;;;;7356342;19;20492;-46
2022/06/23 07:29:41;;;;;;;8.00;3.53;;;25.80;99.90;;;;;;7375518;19;20371;-46
2022/06/23 07:32:23;;;;;;;7.47;4.10;;;25.80;99.50;;;;;;7379094;19;20376;-46
2022/06/23 07:34:57;;;;;;;7.60;3.93;;;25.60;99.90;;;;;;7380629;19;20376;-46
2022/06/23 07:37:34;;;;;;;8.30;3.53;;;25.60;99.90;;;;;;7381025;19;20379;-46
2022/06/23 07:40:06;;;;;;;11.33;3.50;;;25.80;99.90;;;;;;7380687;19;20929;-43
2022/06/23 07:42:52;;;;;;;10.70;3.90;;;26.00;99.90;;;;;;7376967;19;20372;-43
2022/06/23 07:45:30;;;;;;;8.20;3.90;;;26.10;99.70;;;;;;7380433;19;20380;-42
2022/06/23 07:48:02;;;;;;;10.93;4.30;;;26.00;98.60;;;;;;7378098;19;20440;-43
2022/06/23 07:50:32;;;;;;;4.60;2.77;;;26.10;99.40;;;;;;7380722;19;20367;-43
2022/06/23 07:53:02;;;;;;;8.20;2.77;;;26.40;98.10;;;;;;7380540;19;20379;-43
2022/06/23 07:55:36;;;;;;;5.50;3.00;;;26.60;97.70;;;;;;7379165;19;20936;-43
2022/06/23 07:58:06;;;;;;;5.53;3.23;;;26.60;95.90;;;;;;7378578;19;20404;-43
2022/06/23 08:00:39;;;;;;;6.70;3.07;;;26.70;96.20;;;;;;7380892;19;20387;-43
2022/06/23 08:03:15;;;;;;;7.53;3.30;;;26.80;94.60;;;;;;7380730;19;20443;-42
2022/06/23 08:05:48;;;;;;;10.30;3.37;;;26.80;95.50;;;;;;7379667;19;20372;-43
2022/06/23 08:08:20;;;;;;;7.23;3.23;;;26.70;94.30;;;;;;7375975;19;20387;-42
2022/06/23 08:12:53;;;;;;;8.13;3.40;;;26.40;94.30;;;;;;7374116;19;20435;-47
2022/06/23 08:13:44;;;;;;;6.83;3.30;;;26.40;94.10;;;;;;7379305;19;20846;-46
2022/06/23 08:19:07;;;;;;;6.33;2.97;;;26.90;92.40;;;;;;7379116;19;21215;-46
2022/06/23 08:21:41;;;;;;;6.60;3.03;;;26.90;92.30;;;;;;7379640;19;20375;-45
2022/06/23 08:24:14;;;;;;;8.63;3.13;;;26.90;92.70;;;;;;7378312;19;21579;-46
2022/06/23 08:26:49;;;;;;;4.93;3.10;;;26.90;91.80;;;;;;7378396;19;20738;-46
2022/06/23 08:29:22;;;;;;;5.57;3.60;;;27.10;92.10;;;;;;7379875;19;20857;-45
2022/06/23 08:31:54;;;;;;;6.57;2.67;;;27.30;91.20;;;;;;7379976;19;20382;-46
2022/06/23 08:34:26;;;;;;;7.53;2.77;;;27.50;87.30;;;;;;7376972;19;20372;-46
2022/06/23 08:37:03;;;;;;;4.30;2.80;;;27.60;88.00;;;;;;7378173;19;20384;-45
2022/06/23 08:39:42;;;;;;;6.80;3.07;;;27.70;83.00;;;;;;7364685;19;21504;-46
2022/06/23 08:42:21;;;;;;;7.27;3.13;;;27.70;85.30;;;;;;7373319;19;20810;-43
2022/06/23 08:44:59;;;;;;;7.40;3.50;;;28.00;84.40;;;;;;7379119;19;20780;-43
2022/06/23 08:47:38;;;;;;;5.80;3.63;;;28.30;84.60;;;;;;7379515;19;20436;-48
2022/06/23 08:50:16;;;;;;;4.63;2.30;;;28.60;80.70;;;;;;7381139;19;20384;-43
2022/06/23 08:52:53;;;;;;;5.93;2.80;;;28.90;75.00;;;;;;7373277;19;20381;-43
2022/06/23 08:55:29;;;;;;;10.13;3.07;;;29.10;76.70;;;;;;7373864;19;20458;-43
2022/06/23 08:58:03;;;;;;;9.87;2.90;;;29.30;74.70;;;;;;7371953;19;20383;-43
2022/06/23 09:00:40;;;;;;;8.83;2.70;;;29.40;74.70;;;;;;7376317;19;20980;-43
2022/06/23 09:03:17;;;;;;;5.83;2.80;;;29.50;72.60;;;;;;7381002;19;20383;-43
2022/06/23 09:05:57;;;;;;;4.23;2.43;;;29.80;70.20;;;;;;7375536;19;21005;-43
2022/06/23 09:08:32;;;;;;;9.70;3.70;;;30.10;67.90;;;;;;7379464;19;20953;-43
2022/06/23 09:11:09;;;;;;;8.33;2.70;;;30.20;67.30;;;;;;7375538;19;20377;-43
2022/06/23 09:13:58;;;;;;;5.23;2.80;;;30.30;65.50;;;;;;7377457;19;20471;-43
2022/06/23 09:16:45;;;;;;;10.37;2.50;;;30.20;64.70;;;;;;7381558;19;20476;-43
2022/06/23 09:19:43;;;;;;;4.90;2.43;;;30.60;61.90;;;;;;7377649;19;20451;-43
2022/06/23 09:22:46;;;;;;;8.50;2.50;;;30.70;61.90;;;;;;7378202;19;20384;-43
2022/06/23 09:25:23;;;;;;;5.53;2.70;;;30.90;59.80;;;;;;7376734;19;20762;-43
2022/06/23 09:28:16;;;;;;;8.53;3.00;;;31.20;57.50;;;;;;7378275;19;20372;-43
2022/06/23 09:30:53;;;;;;;4.03;2.33;;;31.30;57.70;;;;;;7376217;19;20768;-43
2022/06/23 09:33:38;;;;;;;7.40;2.13;;;31.50;56.10;;;;;;7379488;19;20455;-43
2022/06/23 09:36:35;;;;;;;5.93;2.97;;;31.70;53.30;;;;;;7378560;19;20380;-43
2022/06/23 09:39:42;;;;;;;9.73;2.60;;;32.00;55.20;;;;;;7376605;19;20443;-43
2022/06/23 09:42:49;;;;;;;5.30;2.30;;;32.40;52.90;;;;;;7375720;19;20422;-43
2022/06/23 09:45:38;;;;;;;5.33;2.10;;;32.70;52.80;;;;;;7378486;19;20368;-43
2022/06/23 09:48:33;;;;;;;7.10;2.70;;;33.10;50.40;;;;;;7372646;19;20376;-43
2022/06/23 09:51:25;;;;;;;7.57;3.00;;;33.40;50.40;;;;;;7376764;19;20380;-44
2022/06/23 09:54:29;;;;;;;5.67;2.20;;;33.80;49.00;;;;;;7378527;19;20436;-43
2022/06/23 09:57:26;;;;;;;4.77;2.30;;;34.00;48.20;;;;;;7370138;19;20416;-43
2022/06/23 10:00:05;;;;;;;4.80;2.57;;;34.50;46.90;;;;;;7374032;19;20405;-43
2022/06/23 10:03:10;;;;;;;3.87;2.20;;;34.30;47.50;;;;;;7373899;19;20380;-44
2022/06/23 10:06:04;;;;;;;5.27;2.33;;;34.90;46.30;;;;;;7378755;19;20400;-44
2022/06/23 10:08:50;;;;;;;8.20;3.00;;;35.50;45.00;;;;;;7377128;19;20416;-44
2022/06/23 10:11:43;;;;;;;6.50;2.53;;;36.10;43.80;;;;;;7377056;19;20417;-44
2022/06/23 10:14:27;;;;;;;6.10;2.37;;;36.80;42.50;;;;;;7375111;19;20395;-44
2022/06/23 10:17:19;;;;;;;8.17;2.70;;;37.30;40.90;;;;;;7372995;19;20827;-42
2022/06/23 10:20:09;;;;;;;9.70;2.80;;;37.70;39.70;;;;;;7369343;19;20375;-42
2022/06/23 10:23:15;;;;;;;5.33;2.40;;;37.60;40.30;;;;;;7379391;19;20372;-42
2022/06/23 10:26:01;;;;;;;7.70;2.43;;;37.60;38.80;;;;;;7372599;19;20415;-42
2022/06/23 10:29:13;;;;;;;7.80;2.40;;;37.90;39.10;;;;;;7375931;19;20940;-43
2022/06/23 10:32:20;;;;;;;6.70;2.93;;;38.90;38.20;;;;;;7375565;19;20376;-43
2022/06/23 10:35:13;;;;;;;5.10;2.43;;;39.00;37.50;;;;;;7376358;19;20845;-42
2022/06/23 10:38:01;;;;;;;5.20;2.40;;;39.30;36.80;;;;;;7379015;19;20400;-42
2022/06/23 10:41:00;;;;;;;7.73;2.60;;;39.70;36.50;;;;;;7376217;19;20408;-43
2022/06/23 10:43:45;;;;;;;6.77;2.60;;;40.20;35.00;;;;;;7371383;19;20392;-44
2022/06/23 10:46:25;;;;;;;3.60;2.20;;;40.60;33.80;;;;;;7377077;19;20436;-43
2022/06/23 10:49:17;;;;;;;7.87;2.30;;;40.80;34.50;;;;;;7378742;19;20383;-44
2022/06/23 10:52:29;;;;;;;6.50;2.30;;;41.10;33.50;;;;;;7376679;19;20412;-46
2022/06/23 10:55:19;;;;;;;7.03;2.10;;;41.30;33.70;;;;;;7370478;19;20435;-44
2022/06/23 10:58:23;;;;;;;8.70;2.23;;;41.60;32.90;;;;;;7371908;19;20411;-45
2022/06/23 11:01:08;;;;;;;6.03;2.77;;;41.80;32.80;;;;;;7371806;19;20419;-46
2022/06/23 11:04:03;;;;;;;7.60;2.73;;;41.90;31.70;;;;;;7375767;19;20388;-45
2022/06/23 11:06:56;;;;;;;6.50;2.40;;;41.70;31.30;;;;;;7368957;19;20405;-45
2022/06/23 11:09:59;;;;;;;5.67;2.47;;;41.40;32.70;;;;;;7375315;19;20416;-45
2022/06/23 11:12:42;;;;;;;4.70;1.87;;;42.00;31.90;;;;;;7371945;19;20432;-46
2022/06/23 11:15:21;;;;;;;4.47;2.20;;;41.80;30.90;;;;;;7377043;19;20429;-45
2022/06/23 11:18:08;;;;;;;5.40;2.30;;;42.10;31.30;;;;;;7375040;19;20780;-46
2022/06/23 11:20:55;;;;;;;5.50;2.20;;;42.80;30.80;;;;;;7375739;19;20380;-43
2022/06/23 11:23:37;;;;;;;6.73;2.40;;;43.30;29.10;;;;;;7376104;19;20387;-43
2022/06/23 11:26:17;;;;;;;3.67;2.00;;;43.80;28.50;;;;;;7375590;19;20437;-43
2022/06/23 11:29:01;;;;;;;6.73;2.70;;;43.80;28.00;;;;;;7372809;19;20386;-43
2022/06/23 11:31:43;;;;;;;4.37;1.80;;;43.70;28.20;;;;;;7371021;19;20848;-43
2022/06/23 11:34:31;;;;;;;7.40;2.60;;;43.40;28.50;;;;;;7365071;19;20407;-43
2022/06/23 11:37:32;;;;;;;8.60;2.60;;;43.80;28.10;;;;;;7367824;19;20426;-43
2022/06/23 11:40:28;;;;;;;6.73;2.00;;;43.80;28.30;;;;;;7356874;19;21255;-43
2022/06/23 11:43:12;;;;;;;8.10;2.70;;;44.00;28.70;;;;;;7352285;19;20396;-43
2022/06/23 11:45:55;;;;;;;5.30;2.30;;;44.60;27.60;;;;;;7348636;19;20392;-44
2022/06/23 11:48:50;;;;;;;9.67;2.20;;;44.30;27.80;;;;;;7342966;19;20375;-43
2022/06/23 11:51:30;;;;;;;3.40;2.10;;;43.70;28.30;;;;;;7358097;19;20375;-46
2022/06/23 11:54:18;;;;;;;6.53;2.30;;;43.20;29.20;;;;;;7337997;19;20393;-47
2022/06/23 11:57:06;;;;;;;6.07;2.40;;;43.40;28.70;;;;;;7361259;19;20380;-46
2022/06/23 11:59:48;;;;;;;6.90;2.97;;;42.40;29.00;;;;;;7370190;19;20380;-46
2022/06/23 12:02:18;;;;;;;3.70;1.90;;;42.50;29.30;;;;;;7366953;19;20383;-45
2022/06/23 12:05:09;;;;;;;5.17;2.10;;;42.60;28.90;;;;;;7378387;19;20828;-47
2022/06/23 12:08:03;;;;;;;5.47;3.00;;;42.70;28.50;;;;;;7365234;19;20437;-45
2022/06/23 12:10:39;;;;;;;6.50;2.47;;;41.60;29.70;;;;;;7358893;19;20379;-46
2022/06/23 12:13:11;;;;;;;9.37;2.70;;;39.70;31.90;;;;;;7366491;19;20906;-45
2022/06/23 12:15:44;;;;;;;9.13;2.30;;;38.20;33.90;;;;;;7362738;19;21865;-45
2022/06/23 12:18:22;;;;;;;8.10;2.70;;;38.00;34.80;;;;;;7359128;19;20372;-46
2022/06/23 12:20:56;;;;;;;6.70;2.37;;;37.80;34.90;;;;;;7371204;19;20409;-43
2022/06/23 12:23:38;;;;;;;13.60;3.30;;;37.40;35.60;;;;;;7356343;19;20384;-42
2022/06/23 12:26:17;;;;;;;6.53;2.60;;;38.80;34.60;;;;;;7363547;19;20368;-42
2022/06/23 12:28:55;;;;;;;4.80;2.80;;;40.60;32.00;;;;;;7358892;19;20443;-43
2022/06/23 12:31:34;;;;;;;5.83;2.27;;;42.00;29.70;;;;;;7355833;19;20421;-43
2022/06/23 12:34:17;;;;;;;6.50;2.53;;;42.50;29.60;;;;;;7344982;19;20436;-42
2022/06/23 12:36:57;;;;;;;8.33;1.80;;;42.30;29.90;;;;;;7363576;19;20376;-42
2022/06/23 12:39:36;;;;;;;7.77;2.77;;;42.40;29.40;;;;;;7365408;19;20379;-42
2022/06/23 12:42:16;;;;;;;6.60;2.40;;;42.80;28.70;;;;;;7358680;19;20394;-43
2022/06/23 12:45:07;;;;;;;6.77;2.30;;;42.90;28.10;;;;;;7353108;19;20777;-42
2022/06/23 12:47:54;;;;;;;6.57;2.30;;;42.90;28.40;;;;;;7362274;19;20419;-43
2022/06/23 12:50:37;;;;;;;8.47;2.70;;;43.30;27.70;;;;;;7368544;19;20435;-46
2022/06/23 12:53:37;;;;;;;7.67;2.17;;;43.60;28.00;;;;;;7368285;19;20387;-47
2022/06/23 12:56:22;;;;;;;5.60;2.20;;;43.90;27.40;;;;;;7354637;19;20484;-46
2022/06/23 12:58:59;;;;;;;8.87;3.67;;;43.90;27.30;;;;;;7357808;19;20946;-47
2022/06/23 13:01:38;;;;;;;7.20;2.97;;;44.50;27.90;;;;;;7370789;19;21001;-46
2022/06/23 13:04:16;;;;;;;6.87;3.37;;;44.90;26.90;;;;;;7361703;19;20420;-46
2022/06/23 13:06:53;;;;;;;5.73;2.23;;;45.30;26.60;;;;;;7368788;19;20404;-46
2022/06/23 13:09:33;;;;;;;4.80;2.17;;;45.60;26.40;;;;;;7371021;19;20380;-46
2022/06/23 13:12:07;;;;;;;4.13;2.30;;;45.40;27.00;;;;;;7365119;19;20376;-46
2022/06/23 13:14:46;;;;;;;6.40;2.40;;;45.50;26.60;;;;;;7378197;19;20742;-45
2022/06/23 13:17:26;;;;;;;5.33;3.80;;;45.20;26.70;;;;;;7344518;19;20484;-46
2022/06/23 13:20:04;;;;;;;5.47;2.13;;;45.00;27.40;;;;;;7366199;19;20368;-43
2022/06/23 13:22:48;;;;;;;5.47;2.20;;;45.10;27.20;;;;;;7369530;19;20371;-42
2022/06/23 13:25:24;;;;;;;5.10;3.40;;;44.90;27.30;;;;;;7362898;19;21205;-43
2022/06/23 13:27:57;;;;;;;6.73;3.70;;;44.70;27.80;;;;;;7358174;19;21048;-43
2022/06/23 13:30:36;;;;;;;5.57;3.10;;;44.70;27.50;;;;;;7360087;19;20393;-43
2022/06/23 13:33:13;;;;;;;6.57;2.20;;;45.10;27.50;;;;;;7352393;19;20942;-43
2022/06/23 13:35:59;;;;;;;8.43;3.03;;;44.90;26.40;;;;;;7363694;19;21077;-43
2022/06/23 13:38:40;;;;;;;5.87;2.20;;;44.40;26.30;;;;;;7366948;19;20732;-42
2022/06/23 13:41:18;;;;;;;6.90;3.03;;;44.00;26.90;;;;;;7361877;19;20865;-43
2022/06/23 13:43:57;;;;;;;4.47;3.03;;;43.40;28.30;;;;;;7368920;19;20777;-43
2022/06/23 13:46:35;;;;;;;9.57;3.20;;;42.90;28.60;;;;;;7364368;19;20407;-43
2022/06/23 13:49:13;;;;;;;6.40;2.43;;;42.50;29.20;;;;;;7367564;19;20460;-44
2022/06/23 13:51:52;;;;;;;7.63;2.50;;;42.30;28.60;;;;;;7363540;19;20385;-43
2022/06/23 13:54:30;;;;;;;8.90;2.70;;;41.90;28.00;;;;;;7367496;19;20426;-43
2022/06/23 13:57:12;;;;;;;5.37;2.10;;;41.20;28.70;;;;;;7358487;19;20417;-43